createdAt,value
2023-03-22T04:44:23.775Z,9.65
2023-03-22T04:47:27.340Z,9.30
2023-03-22T04:50:30.121Z,10.50
2023-03-22T04:53:38.689Z,11.38
2023-03-22T04:56:41.561Z,10.32
2023-03-22T04:59:44.660Z,13.75
2023-03-22T05:02:47.388Z,9.50
2023-03-22T05:05:56.211Z,10.82
2023-03-22T05:09:00.946Z,9.90
2023-03-22T05:12:04.056Z,11.15
2023-03-22T05:15:08.821Z,9.45
2023-03-22T05:18:14.385Z,9.73
2023-03-22T05:21:22.028Z,10.23
2023-03-22T05:24:25.690Z,8.88
2023-03-22T05:27:31.701Z,8.23
2023-03-22T05:30:35.340Z,9.85
2023-03-22T05:33:38.121Z,8.70
2023-03-22T05:36:41.000Z,8.30
2023-03-22T05:39:44.022Z,9.43
2023-03-22T05:42:47.108Z,9.80
2023-03-22T05:45:50.988Z,9.00
2023-03-22T05:48:54.792Z,9.52
2023-03-22T05:51:58.561Z,9.00
2023-03-22T05:55:02.248Z,10.30
2023-03-22T05:58:05.743Z,9.88
2023-03-22T06:01:12.595Z,9.13
2023-03-22T06:04:18.768Z,8.65
2023-03-22T06:07:21.901Z,9.18
2023-03-22T06:10:26.921Z,9.45
2023-03-22T06:13:29.800Z,10.07
2023-03-22T06:16:32.963Z,8.68
2023-03-22T06:19:35.646Z,8.77
2023-03-22T06:22:39.332Z,11.10
2023-03-22T06:25:42.383Z,10.27
2023-03-22T06:28:45.456Z,9.48
2023-03-22T06:31:48.377Z,9.30
2023-03-22T06:34:51.145Z,10.32
2023-03-22T06:37:54.806Z,8.45
2023-03-22T06:40:57.663Z,9.40
2023-03-22T06:44:02.793Z,9.10
2023-03-22T06:47:10.913Z,8.00
2023-03-22T06:50:15.329Z,7.25
2023-03-22T06:53:22.968Z,7.18
2023-03-22T06:56:26.148Z,8.30
2023-03-22T06:59:29.316Z,8.43
2023-03-22T07:02:32.016Z,7.03
2023-03-22T07:05:38.896Z,9.40
2023-03-22T07:08:42.103Z,7.62
2023-03-22T07:11:45.812Z,9.43
2023-03-22T07:14:48.266Z,8.68
2023-03-22T07:20:55.738Z,7.37
2023-03-22T07:27:02.137Z,9.98
2023-03-22T07:30:07.215Z,8.32
2023-03-22T07:33:12.087Z,7.32
2023-03-22T07:36:16.222Z,8.23
2023-03-22T07:39:18.627Z,8.50
2023-03-22T07:42:23.537Z,7.10
2023-03-22T07:45:29.838Z,9.43
2023-03-22T07:48:36.102Z,8.15
2023-03-22T07:51:39.614Z,8.43
2023-03-22T07:54:42.494Z,8.88
2023-03-22T07:57:45.031Z,9.57
2023-03-22T08:03:55.978Z,8.27
2023-03-22T08:07:01.154Z,9.43
2023-03-22T08:10:04.884Z,9.18
2023-03-22T08:13:07.724Z,8.20
2023-03-22T08:16:10.661Z,8.65
2023-03-22T08:19:13.563Z,8.60
2023-03-22T08:22:16.854Z,9.68
2023-03-22T08:25:22.398Z,9.88
2023-03-22T08:28:26.721Z,9.40
2023-03-22T08:31:29.592Z,9.38
2023-03-22T08:34:36.993Z,10.15
2023-03-22T08:37:40.082Z,7.95
2023-03-22T08:40:48.037Z,10.10
2023-03-22T08:43:53.223Z,9.43
2023-03-22T08:46:56.056Z,9.23
2023-03-22T08:49:58.817Z,8.43
2023-03-22T08:53:03.421Z,9.68
2023-03-22T08:56:07.808Z,10.10
2023-03-22T08:59:11.222Z,9.95
2023-03-22T09:02:13.909Z,9.87
2023-03-22T09:05:17.451Z,7.32
2023-03-22T09:08:21.024Z,7.75
2023-03-22T09:11:24.645Z,7.97
2023-03-22T09:14:27.133Z,7.65
2023-03-22T09:17:30.427Z,8.55
2023-03-22T09:20:33.116Z,8.73
2023-03-22T09:23:38.103Z,8.20
2023-03-22T09:26:41.496Z,6.68
2023-03-22T09:29:44.640Z,7.37
2023-03-22T09:32:48.270Z,8.30
2023-03-22T09:35:54.378Z,7.32
2023-03-22T09:38:57.341Z,8.35
2023-03-22T09:42:15.447Z,7.12
2023-03-22T09:45:22.949Z,7.93
2023-03-22T09:48:39.054Z,8.52
2023-03-22T09:51:45.502Z,6.95
2023-03-22T09:54:49.586Z,6.75
2023-03-22T09:58:12.037Z,8.05
2023-03-22T10:01:21.550Z,6.95
2023-03-22T10:04:46.653Z,6.62
2023-03-22T10:08:23.455Z,8.02
2023-03-22T10:11:46.234Z,8.38
2023-03-22T10:15:14.099Z,8.82
2023-03-22T10:18:24.895Z,9.30
2023-03-22T10:21:27.476Z,9.55
2023-03-22T10:24:35.534Z,9.07
2023-03-22T10:27:39.104Z,8.27
2023-03-22T10:30:43.326Z,9.52
2023-03-22T10:33:58.615Z,8.70
2023-03-22T10:37:06.325Z,8.07
2023-03-22T10:40:18.660Z,9.02
2023-03-22T10:43:28.286Z,8.93
2023-03-22T10:46:38.871Z,8.82
2023-03-22T10:49:54.420Z,9.45
2023-03-22T10:53:24.724Z,8.15
2023-03-22T10:56:27.561Z,9.55
2023-03-22T10:59:48.606Z,8.63
2023-03-22T11:02:54.050Z,8.90
2023-03-22T11:06:14.596Z,8.20
2023-03-22T11:09:23.625Z,9.05
2023-03-22T11:12:26.146Z,9.70
2023-03-22T11:15:31.342Z,9.45
2023-03-22T11:18:35.205Z,8.18
2023-03-22T11:21:41.847Z,9.07
2023-03-22T11:24:47.254Z,8.85
2023-03-22T11:27:56.983Z,9.10
2023-03-22T11:31:02.058Z,8.57
2023-03-22T11:34:16.898Z,8.75
2023-03-22T11:37:19.461Z,10.27
2023-03-22T11:40:27.718Z,9.13
2023-03-22T11:43:39.600Z,8.95
2023-03-22T11:46:54.988Z,9.65
2023-03-22T11:49:57.481Z,8.80
2023-03-22T11:53:06.807Z,8.00
2023-03-22T11:56:13.469Z,9.85
2023-03-22T11:59:22.125Z,9.05
2023-03-22T12:02:35.883Z,9.88
2023-03-22T12:05:42.604Z,9.43
2023-03-22T12:08:52.253Z,10.35
2023-03-22T12:11:58.736Z,10.98
2023-03-22T12:15:05.464Z,8.13
2023-03-22T12:18:16.949Z,7.87
2023-03-22T12:21:19.623Z,8.00
2023-03-22T12:24:27.996Z,8.70
2023-03-22T12:27:40.939Z,8.70
2023-03-22T12:30:48.047Z,9.18
2023-03-22T12:33:56.600Z,7.53
2023-03-22T12:37:03.865Z,7.87
2023-03-22T12:40:14.965Z,7.03
2023-03-22T12:43:44.918Z,7.30
2023-03-22T12:47:21.152Z,6.40
2023-03-22T12:50:34.745Z,7.28
2023-03-22T12:53:43.036Z,7.15
2023-03-22T12:56:46.727Z,7.70
2023-03-22T12:59:53.187Z,6.82
2023-03-22T13:03:02.238Z,7.43
2023-03-22T13:06:27.301Z,6.12
2023-03-22T13:09:30.033Z,6.55
2023-03-22T13:12:34.305Z,6.95
2023-03-22T13:15:42.532Z,5.97
2023-03-22T13:18:45.614Z,5.68
2023-03-22T13:21:49.943Z,6.05
2023-03-22T13:25:14.386Z,5.37
2023-03-22T13:28:26.312Z,5.60
2023-03-22T13:31:53.435Z,5.60
2023-03-22T13:34:56.982Z,6.28
2023-03-22T13:41:17.290Z,3.72
2023-03-22T13:44:28.619Z,4.30
2023-03-22T13:47:44.831Z,4.47
2023-03-22T13:50:48.292Z,4.45
2023-03-22T13:54:01.864Z,4.78
2023-03-22T13:57:04.371Z,4.22
2023-03-22T14:00:21.970Z,4.75
2023-03-22T14:03:40.787Z,5.85
2023-03-22T14:06:55.097Z,3.33
2023-03-22T14:10:02.243Z,3.85
2023-03-22T14:13:44.317Z,4.15
2023-03-22T14:16:51.666Z,6.05
2023-03-22T14:19:56.316Z,5.28
